sensor_id;sensor_type;location;lat;lon;timestamp;P1;durP1;ratioP1;P2;durP2;ratioP2
5559;SDS011;2803;47.916;8.074;2022-11-20T00:01:03;4.60;;;2.00;;
5559;SDS011;2803;47.916;8.074;2022-11-20T00:03:30;5.20;;;1.40;;
5559;SDS011;2803;47.916;8.074;2022-11-20T00:05:59;2.33;;;1.47;;
5559;SDS011;2803;47.916;8.074;2022-11-20T00:08:26;1.90;;;1.70;;
5559;SDS011;2803;47.916;8.074;2022-11-20T00:10:53;5.03;;;2.00;;
5559;SDS011;2803;47.916;8.074;2022-11-20T00:13:20;1.80;;;1.27;;
5559;SDS011;2803;47.916;8.074;2022-11-20T00:15:47;32.53;;;10.40;;
5559;SDS011;2803;47.916;8.074;2022-11-20T00:18:13;16.93;;;6.23;;
5559;SDS011;2803;47.916;8.074;2022-11-20T00:20:40;5.40;;;1.90;;
5559;SDS011;2803;47.916;8.074;2022-11-20T00:23:06;3.37;;;1.43;;
5559;SDS011;2803;47.916;8.074;2022-11-20T00:25:33;5.00;;;1.53;;
5559;SDS011;2803;47.916;8.074;2022-11-20T00:28:01;2.67;;;1.80;;
5559;SDS011;2803;47.916;8.074;2022-11-20T00:30:28;2.27;;;1.77;;
5559;SDS011;2803;47.916;8.074;2022-11-20T00:32:56;3.73;;;1.80;;
5559;SDS011;2803;47.916;8.074;2022-11-20T00:35:22;2.33;;;1.87;;
5559;SDS011;2803;47.916;8.074;2022-11-20T00:37:49;1.70;;;1.60;;
5559;SDS011;2803;47.916;8.074;2022-11-20T00:40:16;4.27;;;2.67;;
5559;SDS011;2803;47.916;8.074;2022-11-20T00:42:43;5.60;;;3.07;;
5559;SDS011;2803;47.916;8.074;2022-11-20T00:45:10;2.60;;;1.90;;
5559;SDS011;2803;47.916;8.074;2022-11-20T00:47:37;3.80;;;1.53;;
5559;SDS011;2803;47.916;8.074;2022-11-20T00:50:04;7.73;;;1.57;;
5559;SDS011;2803;47.916;8.074;2022-11-20T00:52:31;2.53;;;1.80;;
5559;SDS011;2803;47.916;8.074;2022-11-20T00:54:57;3.37;;;1.57;;
5559;SDS011;2803;47.916;8.074;2022-11-20T00:57:24;2.17;;;1.40;;
5559;SDS011;2803;47.916;8.074;2022-11-20T00:59:51;2.00;;;1.73;;
5559;SDS011;2803;47.916;8.074;2022-11-20T01:02:18;7.53;;;2.70;;
5559;SDS011;2803;47.916;8.074;2022-11-20T01:04:45;12.63;;;4.70;;
5559;SDS011;2803;47.916;8.074;2022-11-20T01:07:12;16.80;;;5.63;;
5559;SDS011;2803;47.916;8.074;2022-11-20T01:09:38;11.17;;;3.57;;
5559;SDS011;2803;47.916;8.074;2022-11-20T01:12:05;4.30;;;3.00;;
5559;SDS011;2803;47.916;8.074;2022-11-20T01:14:31;8.43;;;3.50;;
5559;SDS011;2803;47.916;8.074;2022-11-20T01:16:58;9.10;;;3.97;;
5559;SDS011;2803;47.916;8.074;2022-11-20T01:19:26;3.83;;;2.47;;
5559;SDS011;2803;47.916;8.074;2022-11-20T01:21:53;6.10;;;2.27;;
5559;SDS011;2803;47.916;8.074;2022-11-20T01:24:20;13.37;;;5.20;;
5559;SDS011;2803;47.916;8.074;2022-11-20T01:26:48;12.03;;;3.70;;
5559;SDS011;2803;47.916;8.074;2022-11-20T01:29:17;8.00;;;3.83;;
5559;SDS011;2803;47.916;8.074;2022-11-20T01:31:45;2.47;;;1.80;;
5559;SDS011;2803;47.916;8.074;2022-11-20T01:34:12;4.63;;;2.20;;
5559;SDS011;2803;47.916;8.074;2022-11-20T01:36:41;4.43;;;2.00;;
5559;SDS011;2803;47.916;8.074;2022-11-20T01:39:10;2.47;;;2.00;;
5559;SDS011;2803;47.916;8.074;2022-11-20T01:41:38;1.60;;;1.50;;
5559;SDS011;2803;47.916;8.074;2022-11-20T01:44:20;2.23;;;1.50;;
5559;SDS011;2803;47.916;8.074;2022-11-20T01:46:51;2.63;;;1.73;;
5559;SDS011;2803;47.916;8.074;2022-11-20T01:49:24;5.03;;;2.20;;
5559;SDS011;2803;47.916;8.074;2022-11-20T01:52:05;5.13;;;1.87;;
5559;SDS011;2803;47.916;8.074;2022-11-20T01:54:38;4.60;;;1.47;;
5559;SDS011;2803;47.916;8.074;2022-11-20T01:57:08;5.07;;;3.67;;
5559;SDS011;2803;47.916;8.074;2022-11-20T01:59:37;5.20;;;2.20;;
5559;SDS011;2803;47.916;8.074;2022-11-20T02:02:10;6.83;;;2.10;;
5559;SDS011;2803;47.916;8.074;2022-11-20T02:04:36;2.20;;;2.00;;
5559;SDS011;2803;47.916;8.074;2022-11-20T02:07:05;2.90;;;1.40;;
5559;SDS011;2803;47.916;8.074;2022-11-20T02:09:31;1.53;;;1.33;;
5559;SDS011;2803;47.916;8.074;2022-11-20T02:11:58;3.40;;;1.50;;
5559;SDS011;2803;47.916;8.074;2022-11-20T02:14:26;4.33;;;1.47;;
5559;SDS011;2803;47.916;8.074;2022-11-20T02:16:52;1.40;;;1.13;;
5559;SDS011;2803;47.916;8.074;2022-11-20T02:19:22;3.90;;;1.30;;
5559;SDS011;2803;47.916;8.074;2022-11-20T02:21:54;1.30;;;0.93;;
5559;SDS011;2803;47.916;8.074;2022-11-20T02:24:28;2.70;;;1.30;;
5559;SDS011;2803;47.916;8.074;2022-11-20T02:26:56;1.73;;;1.00;;
5559;SDS011;2803;47.916;8.074;2022-11-20T02:29:26;1.27;;;1.00;;
5559;SDS011;2803;47.916;8.074;2022-11-20T02:31:58;1.60;;;1.30;;
5559;SDS011;2803;47.916;8.074;2022-11-20T02:34:26;1.70;;;1.20;;
5559;SDS011;2803;47.916;8.074;2022-11-20T02:36:53;1.93;;;1.10;;
5559;SDS011;2803;47.916;8.074;2022-11-20T02:39:21;2.93;;;0.80;;
5559;SDS011;2803;47.916;8.074;2022-11-20T02:41:52;4.70;;;1.10;;
5559;SDS011;2803;47.916;8.074;2022-11-20T02:44:20;4.20;;;1.10;;
5559;SDS011;2803;47.916;8.074;2022-11-20T02:46:46;5.33;;;1.10;;
5559;SDS011;2803;47.916;8.074;2022-11-20T02:49:13;2.87;;;1.10;;
5559;SDS011;2803;47.916;8.074;2022-11-20T02:51:41;1.63;;;1.37;;
5559;SDS011;2803;47.916;8.074;2022-11-20T02:54:08;7.37;;;1.27;;
5559;SDS011;2803;47.916;8.074;2022-11-20T02:56:34;1.30;;;1.10;;
5559;SDS011;2803;47.916;8.074;2022-11-20T02:59:05;6.50;;;1.07;;
5559;SDS011;2803;47.916;8.074;2022-11-20T03:01:32;8.57;;;1.37;;
5559;SDS011;2803;47.916;8.074;2022-11-20T03:03:58;2.03;;;0.90;;
5559;SDS011;2803;47.916;8.074;2022-11-20T03:06:25;5.57;;;1.53;;
5559;SDS011;2803;47.916;8.074;2022-11-20T03:08:52;3.50;;;0.90;;
5559;SDS011;2803;47.916;8.074;2022-11-20T03:11:18;3.17;;;0.90;;
5559;SDS011;2803;47.916;8.074;2022-11-20T03:13:45;1.43;;;1.10;;
5559;SDS011;2803;47.916;8.074;2022-11-20T03:16:14;1.30;;;1.10;;
5559;SDS011;2803;47.916;8.074;2022-11-20T03:18:42;1.47;;;1.03;;
5559;SDS011;2803;47.916;8.074;2022-11-20T03:21:10;3.37;;;1.17;;
5559;SDS011;2803;47.916;8.074;2022-11-20T03:23:37;1.63;;;1.10;;
5559;SDS011;2803;47.916;8.074;2022-11-20T03:26:07;2.47;;;1.10;;
5559;SDS011;2803;47.916;8.074;2022-11-20T03:28:34;2.67;;;1.03;;
5559;SDS011;2803;47.916;8.074;2022-11-20T03:31:04;1.50;;;1.00;;
5559;SDS011;2803;47.916;8.074;2022-11-20T03:33:33;1.47;;;1.20;;
5559;SDS011;2803;47.916;8.074;2022-11-20T03:36:01;5.33;;;1.10;;
5559;SDS011;2803;47.916;8.074;2022-11-20T03:38:29;2.73;;;1.17;;
5559;SDS011;2803;47.916;8.074;2022-11-20T03:40:58;1.40;;;0.90;;
5559;SDS011;2803;47.916;8.074;2022-11-20T03:43:25;1.23;;;0.87;;
5559;SDS011;2803;47.916;8.074;2022-11-20T03:45:52;3.80;;;1.43;;
5559;SDS011;2803;47.916;8.074;2022-11-20T03:48:19;1.97;;;1.00;;
5559;SDS011;2803;47.916;8.074;2022-11-20T03:50:46;1.40;;;1.03;;
5559;SDS011;2803;47.916;8.074;2022-11-20T03:53:13;1.60;;;1.10;;
5559;SDS011;2803;47.916;8.074;2022-11-20T03:55:40;1.73;;;1.00;;
5559;SDS011;2803;47.916;8.074;2022-11-20T03:58:07;1.67;;;0.90;;
5559;SDS011;2803;47.916;8.074;2022-11-20T04:00:33;1.60;;;1.10;;
5559;SDS011;2803;47.916;8.074;2022-11-20T04:03:01;1.50;;;1.13;;
5559;SDS011;2803;47.916;8.074;2022-11-20T04:05:28;1.73;;;1.03;;
5559;SDS011;2803;47.916;8.074;2022-11-20T04:07:56;1.77;;;1.10;;
5559;SDS011;2803;47.916;8.074;2022-11-20T04:10:23;1.33;;;1.00;;
5559;SDS011;2803;47.916;8.074;2022-11-20T04:12:50;3.00;;;1.03;;
5559;SDS011;2803;47.916;8.074;2022-11-20T04:15:16;11.40;;;1.20;;
5559;SDS011;2803;47.916;8.074;2022-11-20T04:17:43;1.47;;;1.00;;
5559;SDS011;2803;47.916;8.074;2022-11-20T04:20:10;2.37;;;1.13;;
5559;SDS011;2803;47.916;8.074;2022-11-20T04:22:36;4.50;;;1.43;;
5559;SDS011;2803;47.916;8.074;2022-11-20T04:25:05;1.30;;;0.97;;
5559;SDS011;2803;47.916;8.074;2022-11-20T04:27:32;1.20;;;1.00;;
5559;SDS011;2803;47.916;8.074;2022-11-20T04:29:58;3.23;;;1.60;;
5559;SDS011;2803;47.916;8.074;2022-11-20T04:32:25;2.23;;;1.23;;
5559;SDS011;2803;47.916;8.074;2022-11-20T04:34:51;3.63;;;1.50;;
5559;SDS011;2803;47.916;8.074;2022-11-20T04:37:18;3.23;;;1.27;;
5559;SDS011;2803;47.916;8.074;2022-11-20T04:39:45;2.33;;;1.23;;
5559;SDS011;2803;47.916;8.074;2022-11-20T04:42:12;1.90;;;1.10;;
5559;SDS011;2803;47.916;8.074;2022-11-20T04:44:53;1.77;;;1.20;;
5559;SDS011;2803;47.916;8.074;2022-11-20T04:47:20;2.10;;;0.90;;
5559;SDS011;2803;47.916;8.074;2022-11-20T04:49:46;4.03;;;1.20;;
5559;SDS011;2803;47.916;8.074;2022-11-20T04:52:13;2.23;;;1.30;;
5559;SDS011;2803;47.916;8.074;2022-11-20T04:54:40;3.77;;;1.23;;
5559;SDS011;2803;47.916;8.074;2022-11-20T04:57:07;2.17;;;1.30;;
5559;SDS011;2803;47.916;8.074;2022-11-20T04:59:35;4.97;;;1.50;;
5559;SDS011;2803;47.916;8.074;2022-11-20T05:02:02;3.50;;;1.20;;
5559;SDS011;2803;47.916;8.074;2022-11-20T05:04:28;1.80;;;1.00;;
5559;SDS011;2803;47.916;8.074;2022-11-20T05:06:55;6.50;;;1.20;;
5559;SDS011;2803;47.916;8.074;2022-11-20T05:09:22;2.10;;;1.40;;
5559;SDS011;2803;47.916;8.074;2022-11-20T05:11:49;2.97;;;1.57;;
5559;SDS011;2803;47.916;8.074;2022-11-20T05:14:15;1.40;;;1.30;;
5559;SDS011;2803;47.916;8.074;2022-11-20T05:16:43;2.23;;;1.30;;
5559;SDS011;2803;47.916;8.074;2022-11-20T05:19:10;2.50;;;1.37;;
5559;SDS011;2803;47.916;8.074;2022-11-20T05:21:37;4.47;;;1.57;;
5559;SDS011;2803;47.916;8.074;2022-11-20T05:24:04;6.30;;;1.80;;
5559;SDS011;2803;47.916;8.074;2022-11-20T05:26:32;4.83;;;1.50;;
5559;SDS011;2803;47.916;8.074;2022-11-20T05:28:59;17.97;;;1.57;;
5559;SDS011;2803;47.916;8.074;2022-11-20T05:31:26;1.50;;;1.20;;
5559;SDS011;2803;47.916;8.074;2022-11-20T05:33:55;5.63;;;1.30;;
5559;SDS011;2803;47.916;8.074;2022-11-20T05:36:23;5.57;;;1.50;;
5559;SDS011;2803;47.916;8.074;2022-11-20T05:38:50;7.60;;;1.60;;
5559;SDS011;2803;47.916;8.074;2022-11-20T05:41:17;2.20;;;1.37;;
5559;SDS011;2803;47.916;8.074;2022-11-20T05:43:45;2.20;;;1.23;;
5559;SDS011;2803;47.916;8.074;2022-11-20T05:46:14;1.57;;;1.03;;
5559;SDS011;2803;47.916;8.074;2022-11-20T05:48:42;2.53;;;1.60;;
5559;SDS011;2803;47.916;8.074;2022-11-20T05:51:11;1.80;;;1.03;;
5559;SDS011;2803;47.916;8.074;2022-11-20T05:53:39;2.07;;;1.40;;
5559;SDS011;2803;47.916;8.074;2022-11-20T05:56:07;3.83;;;1.23;;
5559;SDS011;2803;47.916;8.074;2022-11-20T05:58:36;2.10;;;1.20;;
5559;SDS011;2803;47.916;8.074;2022-11-20T06:01:04;4.00;;;1.33;;
5559;SDS011;2803;47.916;8.074;2022-11-20T06:03:33;1.50;;;1.20;;
5559;SDS011;2803;47.916;8.074;2022-11-20T06:05:59;1.80;;;1.13;;
5559;SDS011;2803;47.916;8.074;2022-11-20T06:08:28;6.30;;;1.00;;
5559;SDS011;2803;47.916;8.074;2022-11-20T06:10:54;1.10;;;0.93;;
5559;SDS011;2803;47.916;8.074;2022-11-20T06:13:21;2.10;;;1.40;;
5559;SDS011;2803;47.916;8.074;2022-11-20T06:15:48;3.63;;;1.23;;
5559;SDS011;2803;47.916;8.074;2022-11-20T06:18:15;2.13;;;1.07;;
5559;SDS011;2803;47.916;8.074;2022-11-20T06:20:42;3.33;;;1.00;;
5559;SDS011;2803;47.916;8.074;2022-11-20T06:23:08;1.20;;;1.00;;
5559;SDS011;2803;47.916;8.074;2022-11-20T06:25:38;1.67;;;0.90;;
5559;SDS011;2803;47.916;8.074;2022-11-20T06:28:04;0.90;;;0.70;;
5559;SDS011;2803;47.916;8.074;2022-11-20T06:30:31;1.47;;;0.93;;
5559;SDS011;2803;47.916;8.074;2022-11-20T06:32:58;1.10;;;0.90;;
5559;SDS011;2803;47.916;8.074;2022-11-20T06:35:25;1.70;;;1.10;;
5559;SDS011;2803;47.916;8.074;2022-11-20T06:37:52;5.93;;;0.80;;
5559;SDS011;2803;47.916;8.074;2022-11-20T06:40:18;1.30;;;0.90;;
5559;SDS011;2803;47.916;8.074;2022-11-20T06:42:46;1.33;;;1.00;;
5559;SDS011;2803;47.916;8.074;2022-11-20T06:45:13;1.30;;;0.87;;
5559;SDS011;2803;47.916;8.074;2022-11-20T06:47:39;8.90;;;1.20;;
5559;SDS011;2803;47.916;8.074;2022-11-20T06:50:06;1.80;;;0.90;;
5559;SDS011;2803;47.916;8.074;2022-11-20T06:52:33;1.37;;;1.00;;
5559;SDS011;2803;47.916;8.074;2022-11-20T06:54:59;4.23;;;1.10;;
5559;SDS011;2803;47.916;8.074;2022-11-20T06:57:26;7.03;;;1.20;;
5559;SDS011;2803;47.916;8.074;2022-11-20T06:59:54;2.80;;;1.50;;
5559;SDS011;2803;47.916;8.074;2022-11-20T07:02:21;2.60;;;1.20;;
5559;SDS011;2803;47.916;8.074;2022-11-20T07:04:47;1.17;;;0.77;;
5559;SDS011;2803;47.916;8.074;2022-11-20T07:07:14;1.20;;;0.90;;
5559;SDS011;2803;47.916;8.074;2022-11-20T07:09:40;3.13;;;0.90;;
5559;SDS011;2803;47.916;8.074;2022-11-20T07:12:07;1.60;;;0.80;;
5559;SDS011;2803;47.916;8.074;2022-11-20T07:14:34;1.43;;;0.80;;
5559;SDS011;2803;47.916;8.074;2022-11-20T07:17:02;5.80;;;1.10;;
5559;SDS011;2803;47.916;8.074;2022-11-20T07:19:29;3.30;;;1.20;;
5559;SDS011;2803;47.916;8.074;2022-11-20T07:21:55;3.27;;;0.90;;
5559;SDS011;2803;47.916;8.074;2022-11-20T07:24:22;4.50;;;0.80;;
5559;SDS011;2803;47.916;8.074;2022-11-20T07:26:49;15.93;;;1.13;;
5559;SDS011;2803;47.916;8.074;2022-11-20T07:29:16;4.43;;;1.07;;
5559;SDS011;2803;47.916;8.074;2022-11-20T07:31:42;6.10;;;1.27;;
5559;SDS011;2803;47.916;8.074;2022-11-20T07:34:11;2.13;;;1.10;;
5559;SDS011;2803;47.916;8.074;2022-11-20T07:36:37;3.80;;;1.40;;
5559;SDS011;2803;47.916;8.074;2022-11-20T07:39:04;3.47;;;1.30;;
5559;SDS011;2803;47.916;8.074;2022-11-20T07:41:31;5.03;;;1.37;;
5559;SDS011;2803;47.916;8.074;2022-11-20T07:43:58;3.57;;;1.00;;
5559;SDS011;2803;47.916;8.074;2022-11-20T07:46:25;10.23;;;1.27;;
5559;SDS011;2803;47.916;8.074;2022-11-20T07:48:52;4.10;;;1.17;;
5559;SDS011;2803;47.916;8.074;2022-11-20T07:51:19;3.10;;;1.27;;
5559;SDS011;2803;47.916;8.074;2022-11-20T07:53:46;2.90;;;1.20;;
5559;SDS011;2803;47.916;8.074;2022-11-20T07:56:13;5.00;;;1.23;;
5559;SDS011;2803;47.916;8.074;2022-11-20T07:58:39;2.87;;;1.10;;
5559;SDS011;2803;47.916;8.074;2022-11-20T08:01:06;5.00;;;1.30;;
5559;SDS011;2803;47.916;8.074;2022-11-20T08:03:34;3.73;;;1.07;;
5559;SDS011;2803;47.916;8.074;2022-11-20T08:06:02;8.73;;;1.37;;
5559;SDS011;2803;47.916;8.074;2022-11-20T08:08:31;4.10;;;1.50;;
5559;SDS011;2803;47.916;8.074;2022-11-20T08:10:58;1.70;;;1.27;;
5559;SDS011;2803;47.916;8.074;2022-11-20T08:13:46;2.40;;;0.90;;
5559;SDS011;2803;47.916;8.074;2022-11-20T08:16:26;4.17;;;1.30;;
5559;SDS011;2803;47.916;8.074;2022-11-20T08:18:53;4.13;;;1.33;;
5559;SDS011;2803;47.916;8.074;2022-11-20T08:21:19;4.37;;;1.20;;
5559;SDS011;2803;47.916;8.074;2022-11-20T08:23:47;9.63;;;1.40;;
5559;SDS011;2803;47.916;8.074;2022-11-20T08:26:14;8.53;;;1.50;;
5559;SDS011;2803;47.916;8.074;2022-11-20T08:28:40;6.53;;;1.27;;
5559;SDS011;2803;47.916;8.074;2022-11-20T08:31:07;2.00;;;1.00;;
5559;SDS011;2803;47.916;8.074;2022-11-20T08:33:34;4.97;;;1.10;;
5559;SDS011;2803;47.916;8.074;2022-11-20T08:36:02;3.53;;;1.60;;
5559;SDS011;2803;47.916;8.074;2022-11-20T08:38:29;14.53;;;2.80;;
5559;SDS011;2803;47.916;8.074;2022-11-20T08:40:58;9.80;;;4.20;;
5559;SDS011;2803;47.916;8.074;2022-11-20T08:43:39;10.73;;;4.17;;
5559;SDS011;2803;47.916;8.074;2022-11-20T08:46:05;23.47;;;7.17;;
5559;SDS011;2803;47.916;8.074;2022-11-20T08:48:32;18.57;;;6.13;;
5559;SDS011;2803;47.916;8.074;2022-11-20T08:50:59;10.80;;;3.60;;
5559;SDS011;2803;47.916;8.074;2022-11-20T08:53:25;16.00;;;3.00;;
5559;SDS011;2803;47.916;8.074;2022-11-20T08:55:52;5.73;;;2.13;;
5559;SDS011;2803;47.916;8.074;2022-11-20T08:58:20;7.77;;;1.83;;
5559;SDS011;2803;47.916;8.074;2022-11-20T09:00:47;13.97;;;3.37;;
5559;SDS011;2803;47.916;8.074;2022-11-20T09:03:13;7.57;;;2.07;;
5559;SDS011;2803;47.916;8.074;2022-11-20T09:05:40;2.87;;;1.60;;
5559;SDS011;2803;47.916;8.074;2022-11-20T09:08:07;6.93;;;2.00;;
5559;SDS011;2803;47.916;8.074;2022-11-20T09:10:34;5.70;;;1.90;;
5559;SDS011;2803;47.916;8.074;2022-11-20T09:13:01;7.23;;;1.70;;
5559;SDS011;2803;47.916;8.074;2022-11-20T09:15:29;8.70;;;2.30;;
5559;SDS011;2803;47.916;8.074;2022-11-20T09:17:57;4.73;;;1.87;;
5559;SDS011;2803;47.916;8.074;2022-11-20T09:20:24;2.70;;;1.27;;
5559;SDS011;2803;47.916;8.074;2022-11-20T09:22:51;2.63;;;1.20;;
5559;SDS011;2803;47.916;8.074;2022-11-20T09:25:18;2.00;;;1.13;;
5559;SDS011;2803;47.916;8.074;2022-11-20T09:27:45;4.20;;;1.30;;
5559;SDS011;2803;47.916;8.074;2022-11-20T09:30:12;2.03;;;0.90;;
5559;SDS011;2803;47.916;8.074;2022-11-20T09:32:41;2.80;;;1.00;;
5559;SDS011;2803;47.916;8.074;2022-11-20T09:35:08;4.63;;;1.37;;
5559;SDS011;2803;47.916;8.074;2022-11-20T09:37:35;10.10;;;1.30;;
5559;SDS011;2803;47.916;8.074;2022-11-20T09:40:02;1.93;;;0.80;;
5559;SDS011;2803;47.916;8.074;2022-11-20T09:42:32;5.63;;;1.10;;
5559;SDS011;2803;47.916;8.074;2022-11-20T09:45:10;3.40;;;1.10;;
5559;SDS011;2803;47.916;8.074;2022-11-20T09:47:50;0.90;;;0.67;;
5559;SDS011;2803;47.916;8.074;2022-11-20T09:50:31;7.67;;;1.00;;
5559;SDS011;2803;47.916;8.074;2022-11-20T09:53:02;3.37;;;0.90;;
5559;SDS011;2803;47.916;8.074;2022-11-20T09:55:36;1.10;;;0.70;;
5559;SDS011;2803;47.916;8.074;2022-11-20T09:58:05;6.40;;;1.13;;
5559;SDS011;2803;47.916;8.074;2022-11-20T10:00:32;5.90;;;1.00;;
5559;SDS011;2803;47.916;8.074;2022-11-20T10:03:03;2.40;;;1.00;;
5559;SDS011;2803;47.916;8.074;2022-11-20T10:05:40;1.90;;;0.80;;
5559;SDS011;2803;47.916;8.074;2022-11-20T10:08:12;1.40;;;0.90;;
5559;SDS011;2803;47.916;8.074;2022-11-20T10:10:44;5.47;;;1.30;;
5559;SDS011;2803;47.916;8.074;2022-11-20T10:13:16;2.90;;;1.17;;
5559;SDS011;2803;47.916;8.074;2022-11-20T10:15:53;2.73;;;0.90;;
5559;SDS011;2803;47.916;8.074;2022-11-20T10:18:35;1.67;;;0.80;;
5559;SDS011;2803;47.916;8.074;2022-11-20T10:21:11;1.77;;;0.77;;
5559;SDS011;2803;47.916;8.074;2022-11-20T10:26:40;1.47;;;0.90;;
5559;SDS011;2803;47.916;8.074;2022-11-20T10:29:14;1.97;;;1.03;;
5559;SDS011;2803;47.916;8.074;2022-11-20T10:31:43;3.40;;;1.20;;
5559;SDS011;2803;47.916;8.074;2022-11-20T10:34:17;3.17;;;1.10;;
5559;SDS011;2803;47.916;8.074;2022-11-20T10:36:48;3.83;;;1.10;;
5559;SDS011;2803;47.916;8.074;2022-11-20T10:39:22;2.17;;;1.10;;
5559;SDS011;2803;47.916;8.074;2022-11-20T10:41:56;5.67;;;0.97;;
5559;SDS011;2803;47.916;8.074;2022-11-20T10:44:26;2.93;;;1.20;;
5559;SDS011;2803;47.916;8.074;2022-11-20T10:47:11;4.70;;;1.10;;
5559;SDS011;2803;47.916;8.074;2022-11-20T10:49:40;3.70;;;1.30;;
5559;SDS011;2803;47.916;8.074;2022-11-20T10:52:10;4.17;;;1.10;;
5559;SDS011;2803;47.916;8.074;2022-11-20T10:54:43;3.83;;;1.00;;
5559;SDS011;2803;47.916;8.074;2022-11-20T10:57:18;10.17;;;1.50;;
5559;SDS011;2803;47.916;8.074;2022-11-20T10:59:55;2.83;;;1.13;;
5559;SDS011;2803;47.916;8.074;2022-11-20T11:02:32;7.67;;;1.80;;
5559;SDS011;2803;47.916;8.074;2022-11-20T11:05:05;3.80;;;1.30;;
5559;SDS011;2803;47.916;8.074;2022-11-20T11:07:39;3.00;;;1.00;;
5559;SDS011;2803;47.916;8.074;2022-11-20T11:10:12;4.20;;;1.37;;
5559;SDS011;2803;47.916;8.074;2022-11-20T11:12:43;1.40;;;1.30;;
5559;SDS011;2803;47.916;8.074;2022-11-20T11:15:12;5.50;;;1.23;;
5559;SDS011;2803;47.916;8.074;2022-11-20T11:17:50;3.00;;;1.10;;
5559;SDS011;2803;47.916;8.074;2022-11-20T11:20:19;1.33;;;0.73;;
5559;SDS011;2803;47.916;8.074;2022-11-20T11:22:47;3.03;;;1.30;;
5559;SDS011;2803;47.916;8.074;2022-11-20T11:27:59;3.30;;;1.43;;
5559;SDS011;2803;47.916;8.074;2022-11-20T11:30:27;1.30;;;1.20;;
5559;SDS011;2803;47.916;8.074;2022-11-20T11:33:04;2.73;;;0.93;;
5559;SDS011;2803;47.916;8.074;2022-11-20T11:35:33;1.53;;;1.00;;
5559;SDS011;2803;47.916;8.074;2022-11-20T11:38:11;5.63;;;1.67;;
5559;SDS011;2803;47.916;8.074;2022-11-20T11:40:41;1.80;;;1.20;;
5559;SDS011;2803;47.916;8.074;2022-11-20T11:43:16;5.43;;;1.33;;
5559;SDS011;2803;47.916;8.074;2022-11-20T11:45:59;3.20;;;1.20;;
5559;SDS011;2803;47.916;8.074;2022-11-20T11:48:26;1.33;;;1.10;;
5559;SDS011;2803;47.916;8.074;2022-11-20T11:50:54;4.13;;;1.30;;
5559;SDS011;2803;47.916;8.074;2022-11-20T11:53:21;1.30;;;0.87;;
5559;SDS011;2803;47.916;8.074;2022-11-20T11:55:51;4.90;;;1.20;;
5559;SDS011;2803;47.916;8.074;2022-11-20T11:58:28;3.57;;;1.10;;
5559;SDS011;2803;47.916;8.074;2022-11-20T12:01:07;4.87;;;1.43;;
5559;SDS011;2803;47.916;8.074;2022-11-20T12:03:48;4.17;;;1.47;;
5559;SDS011;2803;47.916;8.074;2022-11-20T12:06:25;2.37;;;0.90;;
5559;SDS011;2803;47.916;8.074;2022-11-20T12:08:56;1.60;;;1.00;;
5559;SDS011;2803;47.916;8.074;2022-11-20T12:11:29;10.03;;;1.20;;
5559;SDS011;2803;47.916;8.074;2022-11-20T12:14:00;3.10;;;1.20;;
5559;SDS011;2803;47.916;8.074;2022-11-20T12:16:35;2.87;;;1.23;;
5559;SDS011;2803;47.916;8.074;2022-11-20T12:19:04;3.80;;;0.93;;
5559;SDS011;2803;47.916;8.074;2022-11-20T12:21:38;1.33;;;0.93;;
5559;SDS011;2803;47.916;8.074;2022-11-20T12:24:20;5.33;;;0.90;;
5559;SDS011;2803;47.916;8.074;2022-11-20T12:27:02;6.43;;;1.43;;
5559;SDS011;2803;47.916;8.074;2022-11-20T12:29:43;3.13;;;1.10;;
5559;SDS011;2803;47.916;8.074;2022-11-20T12:32:26;10.43;;;1.20;;
5559;SDS011;2803;47.916;8.074;2022-11-20T12:35:16;1.40;;;1.20;;
5559;SDS011;2803;47.916;8.074;2022-11-20T12:37:58;2.60;;;1.00;;
5559;SDS011;2803;47.916;8.074;2022-11-20T12:40:41;4.00;;;1.27;;
5559;SDS011;2803;47.916;8.074;2022-11-20T12:43:17;4.37;;;1.00;;
5559;SDS011;2803;47.916;8.074;2022-11-20T12:46:03;3.97;;;1.13;;
5559;SDS011;2803;47.916;8.074;2022-11-20T12:48:51;1.47;;;0.97;;
5559;SDS011;2803;47.916;8.074;2022-11-20T12:51:36;5.20;;;1.40;;
5559;SDS011;2803;47.916;8.074;2022-11-20T12:54:22;11.00;;;1.40;;
5559;SDS011;2803;47.916;8.074;2022-11-20T12:57:03;1.10;;;0.80;;
5559;SDS011;2803;47.916;8.074;2022-11-20T12:59:41;2.00;;;0.90;;
5559;SDS011;2803;47.916;8.074;2022-11-20T13:02:23;6.03;;;1.40;;
5559;SDS011;2803;47.916;8.074;2022-11-20T13:04:58;4.13;;;0.90;;
5559;SDS011;2803;47.916;8.074;2022-11-20T13:07:37;7.10;;;1.07;;
5559;SDS011;2803;47.916;8.074;2022-11-20T13:10:06;3.30;;;1.40;;
5559;SDS011;2803;47.916;8.074;2022-11-20T13:12:45;5.10;;;1.87;;
5559;SDS011;2803;47.916;8.074;2022-11-20T13:15:15;1.93;;;1.00;;
5559;SDS011;2803;47.916;8.074;2022-11-20T13:17:54;2.60;;;1.30;;
5559;SDS011;2803;47.916;8.074;2022-11-20T13:20:24;8.70;;;1.80;;
5559;SDS011;2803;47.916;8.074;2022-11-20T13:22:51;3.13;;;1.40;;
5559;SDS011;2803;47.916;8.074;2022-11-20T13:25:24;7.10;;;3.27;;
5559;SDS011;2803;47.916;8.074;2022-11-20T13:27:52;3.77;;;1.30;;
5559;SDS011;2803;47.916;8.074;2022-11-20T13:30:20;7.17;;;1.00;;
5559;SDS011;2803;47.916;8.074;2022-11-20T13:32:48;3.40;;;0.90;;
5559;SDS011;2803;47.916;8.074;2022-11-20T13:35:25;3.57;;;0.90;;
5559;SDS011;2803;47.916;8.074;2022-11-20T13:38:03;2.07;;;0.80;;
5559;SDS011;2803;47.916;8.074;2022-11-20T13:40:33;1.80;;;0.97;;
5559;SDS011;2803;47.916;8.074;2022-11-20T13:43:07;1.60;;;0.90;;
5559;SDS011;2803;47.916;8.074;2022-11-20T13:45:40;1.00;;;0.90;;
5559;SDS011;2803;47.916;8.074;2022-11-20T13:48:17;6.87;;;1.00;;
5559;SDS011;2803;47.916;8.074;2022-11-20T13:50:50;2.60;;;1.20;;
5559;SDS011;2803;47.916;8.074;2022-11-20T13:53:28;1.50;;;0.80;;
5559;SDS011;2803;47.916;8.074;2022-11-20T13:56:10;3.50;;;0.87;;
5559;SDS011;2803;47.916;8.074;2022-11-20T13:58:50;2.60;;;0.93;;
5559;SDS011;2803;47.916;8.074;2022-11-20T14:01:26;2.97;;;1.23;;
5559;SDS011;2803;47.916;8.074;2022-11-20T14:03:55;1.97;;;0.83;;
5559;SDS011;2803;47.916;8.074;2022-11-20T14:06:24;8.10;;;1.20;;
5559;SDS011;2803;47.916;8.074;2022-11-20T14:08:53;2.07;;;1.10;;
5559;SDS011;2803;47.916;8.074;2022-11-20T14:11:23;2.60;;;1.00;;
5559;SDS011;2803;47.916;8.074;2022-11-20T14:13:52;2.07;;;0.90;;
5559;SDS011;2803;47.916;8.074;2022-11-20T14:16:20;1.57;;;0.70;;
5559;SDS011;2803;47.916;8.074;2022-11-20T14:18:47;2.83;;;0.80;;
5559;SDS011;2803;47.916;8.074;2022-11-20T14:21:20;5.60;;;1.37;;
5559;SDS011;2803;47.916;8.074;2022-11-20T14:23:48;1.30;;;0.83;;
5559;SDS011;2803;47.916;8.074;2022-11-20T14:26:15;1.47;;;0.80;;
5559;SDS011;2803;47.916;8.074;2022-11-20T14:28:47;2.30;;;1.07;;
5559;SDS011;2803;47.916;8.074;2022-11-20T14:31:17;1.33;;;1.00;;
5559;SDS011;2803;47.916;8.074;2022-11-20T14:33:48;1.10;;;0.97;;
5559;SDS011;2803;47.916;8.074;2022-11-20T14:36:16;10.93;;;2.00;;
5559;SDS011;2803;47.916;8.074;2022-11-20T14:38:44;6.30;;;1.30;;
5559;SDS011;2803;47.916;8.074;2022-11-20T14:41:16;2.00;;;1.10;;
5559;SDS011;2803;47.916;8.074;2022-11-20T14:43:46;3.20;;;0.73;;
5559;SDS011;2803;47.916;8.074;2022-11-20T14:46:15;8.63;;;1.53;;
5559;SDS011;2803;47.916;8.074;2022-11-20T14:48:43;3.17;;;0.70;;
5559;SDS011;2803;47.916;8.074;2022-11-20T14:51:23;8.80;;;1.43;;
5559;SDS011;2803;47.916;8.074;2022-11-20T14:53:52;2.30;;;1.10;;
5559;SDS011;2803;47.916;8.074;2022-11-20T14:56:21;3.33;;;1.00;;
5559;SDS011;2803;47.916;8.074;2022-11-20T14:58:58;6.73;;;1.60;;
5559;SDS011;2803;47.916;8.074;2022-11-20T15:01:25;3.80;;;0.90;;
5559;SDS011;2803;47.916;8.074;2022-11-20T15:03:58;4.20;;;0.90;;
5559;SDS011;2803;47.916;8.074;2022-11-20T15:06:27;3.50;;;1.07;;
5559;SDS011;2803;47.916;8.074;2022-11-20T15:08:54;3.20;;;0.90;;
5559;SDS011;2803;47.916;8.074;2022-11-20T15:11:23;3.93;;;0.97;;
5559;SDS011;2803;47.916;8.074;2022-11-20T15:13:55;2.97;;;1.00;;
5559;SDS011;2803;47.916;8.074;2022-11-20T15:16:23;6.33;;;1.00;;
5559;SDS011;2803;47.916;8.074;2022-11-20T15:18:51;1.63;;;0.97;;
5559;SDS011;2803;47.916;8.074;2022-11-20T15:21:19;8.40;;;1.67;;
5559;SDS011;2803;47.916;8.074;2022-11-20T15:23:46;3.77;;;1.20;;
5559;SDS011;2803;47.916;8.074;2022-11-20T15:26:14;2.27;;;1.27;;
5559;SDS011;2803;47.916;8.074;2022-11-20T15:28:43;2.13;;;1.00;;
5559;SDS011;2803;47.916;8.074;2022-11-20T15:31:13;1.87;;;1.23;;
5559;SDS011;2803;47.916;8.074;2022-11-20T15:33:42;2.03;;;1.20;;
5559;SDS011;2803;47.916;8.074;2022-11-20T15:36:09;4.33;;;1.37;;